Time;durP1;ratioP1;P1;durP2;ratioP2;P2;SDS_P1;SDS_P2;PMS_P1;PMS_P2;Temp;Humidity;BMP_temperature;BMP_pressure;BME280_temperature;BME280_humidity;BME280_pressure;Samples;Min_cycle;Max_cycle;Signal;HPM_P1;HPM_P2
2021/03/13 00:00:19;;;;;;;6.68;3.05;;;;;;;7.12;74.20;99961.19;5136259;27;20079;-72
2021/03/13 00:02:47;;;;;;;5.55;3.20;;;;;;;7.09;74.45;99961.34;5136349;27;20070;-70
2021/03/13 00:05:34;;;;;;;6.72;3.03;;;;;;;7.04;74.72;99969.50;5136184;27;20447;-70
2021/03/13 00:08:00;;;;;;;6.18;3.08;;;;;;;7.01;75.47;99974.97;5136157;27;20473;-71
2021/03/13 00:10:27;;;;;;;7.43;2.90;;;;;;;6.93;75.66;99971.00;5117942;27;20049;-72
2021/03/13 00:12:53;;;;;;;5.18;2.83;;;;;;;6.88;76.19;99964.13;5136318;27;20102;-72
2021/03/13 00:15:19;;;;;;;5.10;2.90;;;;;;;6.85;76.47;99969.59;5117585;27;20458;-72
2021/03/13 00:17:46;;;;;;;5.28;3.15;;;;;;;6.87;76.59;99969.53;5118012;27;20064;-71
2021/03/13 00:20:14;;;;;;;6.88;3.10;;;;;;;6.85;76.95;99974.91;5135797;27;20020;-70
2021/03/13 00:22:40;;;;;;;7.90;3.17;;;;;;;6.83;77.36;99976.75;5136184;27;20023;-70
2021/03/13 00:25:07;;;;;;;7.57;3.17;;;;;;;6.88;77.49;99979.19;5136075;27;20442;-70
2021/03/13 00:27:45;;;;;;;5.43;3.28;;;;;;;6.78;77.92;99960.22;5117579;27;20031;-70
2021/03/13 00:30:15;;;;;;;5.45;3.13;;;;;;;6.82;77.96;99969.72;5135560;27;20045;-70
2021/03/13 00:32:40;;;;;;;6.20;3.42;;;;;;;6.70;78.45;99973.00;5118016;27;20106;-69
2021/03/13 00:35:07;;;;;;;5.22;3.10;;;;;;;6.71;78.58;99965.91;5135461;27;20441;-70
2021/03/13 00:37:32;;;;;;;6.55;3.30;;;;;;;6.75;78.71;99973.59;5117477;27;20027;-69
2021/03/13 00:39:58;;;;;;;6.70;3.53;;;;;;;6.64;79.48;99975.06;5117412;27;20026;-73
2021/03/13 00:42:23;;;;;;;6.80;3.53;;;;;;;6.66;79.70;99968.78;5100134;27;20062;-70
2021/03/13 00:44:49;;;;;;;6.53;3.42;;;;;;;6.57;80.12;99979.81;5116384;27;20056;-69
2021/03/13 00:47:14;;;;;;;6.70;3.58;;;;;;;6.50;80.39;99973.09;5135275;27;20054;-69
2021/03/13 00:49:39;;;;;;;6.70;3.45;;;;;;;6.47;80.56;99973.25;5100007;27;20401;-69
2021/03/13 00:52:05;;;;;;;6.85;3.67;;;;;;;6.44;80.83;99979.53;5117097;27;20027;-70
2021/03/13 00:54:31;;;;;;;6.55;3.60;;;;;;;6.44;80.78;99976.03;5117045;27;20198;-69
2021/03/13 00:56:56;;;;;;;7.85;3.78;;;;;;;6.47;81.26;99974.09;5135524;27;20035;-69
2021/03/13 00:59:21;;;;;;;7.03;3.70;;;;;;;6.44;81.16;99960.13;5135124;27;20022;-70
2021/03/13 01:01:47;;;;;;;6.60;3.92;;;;;;;6.43;80.99;99958.41;5116805;27;20030;-70
2021/03/13 01:04:12;;;;;;;7.53;3.78;;;;;;;6.37;81.21;99950.75;5135025;27;20406;-69
2021/03/13 01:06:38;;;;;;;7.07;3.67;;;;;;;6.36;81.41;99955.19;5116830;27;20035;-70
2021/03/13 01:09:05;;;;;;;6.07;3.47;;;;;;;6.30;81.74;99955.50;5116458;27;20030;-70
2021/03/13 01:11:31;;;;;;;6.38;3.55;;;;;;;6.26;81.68;99959.19;5135071;27;20415;-70
2021/03/13 01:13:56;;;;;;;5.68;3.88;;;;;;;6.26;81.82;99959.19;5135089;27;20030;-70
2021/03/13 01:16:22;;;;;;;6.70;3.70;;;;;;;6.12;82.02;99957.22;5134831;27;20030;-70
2021/03/13 01:18:47;;;;;;;7.57;3.50;;;;;;;6.00;82.74;99955.16;5116809;27;20019;-75
2021/03/13 01:21:13;;;;;;;7.30;4.30;;;;;;;6.08;82.61;99955.66;5134745;27;20110;-76
2021/03/13 01:23:38;;;;;;;5.47;3.47;;;;;;;6.13;82.48;99956.28;5134046;27;20043;-76
2021/03/13 01:26:04;;;;;;;6.38;3.65;;;;;;;6.05;82.42;99947.84;5134580;27;20042;-76
2021/03/13 01:28:29;;;;;;;7.30;3.97;;;;;;;6.08;82.41;99944.16;5134737;27;20080;-74
2021/03/13 01:30:55;;;;;;;8.00;3.53;;;;;;;6.00;82.71;99942.75;5134745;27;20026;-75
2021/03/13 01:33:20;;;;;;;6.78;3.58;;;;;;;6.03;82.65;99944.41;5116079;27;20117;-75
2021/03/13 01:35:46;;;;;;;5.60;3.60;;;;;;;6.03;82.98;99942.59;5134608;27;20038;-74
2021/03/13 01:38:11;;;;;;;5.78;3.35;;;;;;;6.03;83.15;99936.47;5134228;27;20435;-74
2021/03/13 01:40:39;;;;;;;6.75;3.70;;;;;;;5.91;83.29;99942.31;5134690;27;20081;-75
2021/03/13 01:43:04;;;;;;;6.25;3.65;;;;;;;5.83;83.64;99947.06;5115812;27;20035;-73
2021/03/13 01:45:30;;;;;;;6.03;3.25;;;;;;;5.84;83.61;99944.34;5134481;27;20499;-72
2021/03/13 01:47:55;;;;;;;7.15;3.72;;;;;;;5.85;83.68;99955.78;5134462;27;20034;-72
2021/03/13 01:50:21;;;;;;;5.97;3.63;;;;;;;5.86;83.65;99954.88;5134108;27;20019;-72
2021/03/13 01:52:48;;;;;;;7.95;3.60;;;;;;;5.93;83.29;99951.06;5134310;27;20028;-73
2021/03/13 01:55:14;;;;;;;7.43;3.85;;;;;;;5.96;83.14;99951.75;5133637;27;20031;-73
2021/03/13 01:57:40;;;;;;;6.70;3.70;;;;;;;5.91;83.17;99952.91;5134246;27;20509;-73
2021/03/13 02:00:10;;;;;;;6.97;3.72;;;;;;;5.79;83.70;99948.13;5134002;27;20118;-74
2021/03/13 02:02:35;;;;;;;7.90;3.85;;;;;;;5.78;83.92;99943.75;5134150;27;20463;-73
2021/03/13 02:05:04;;;;;;;7.22;3.83;;;;;;;5.80;83.82;99939.28;5134232;27;20062;-74
2021/03/13 02:07:46;;;;;;;6.55;3.63;;;;;;;5.75;84.34;99940.34;5116133;27;20039;-73
2021/03/13 02:10:22;;;;;;;5.50;3.70;;;;;;;5.71;84.58;99941.41;5133835;27;20110;-72
2021/03/13 02:13:05;;;;;;;8.80;3.50;;;;;;;5.69;84.55;99943.28;5134196;27;20058;-72
2021/03/13 02:15:40;;;;;;;6.28;3.83;;;;;;;5.66;85.00;99938.09;5133985;27;20051;-72
2021/03/13 02:18:18;;;;;;;7.35;3.47;;;;;;;5.71;84.95;99946.72;5133694;27;20042;-72
2021/03/13 02:21:03;;;;;;;6.70;3.88;;;;;;;5.62;85.14;99947.13;5133963;27;20532;-72
2021/03/13 02:23:35;;;;;;;8.60;3.97;;;;;;;5.61;85.03;99933.97;5133501;27;20027;-71
2021/03/13 02:26:37;;;;;;;8.40;4.15;;;;;;;5.61;85.32;99950.69;5133900;27;20031;-73
2021/03/13 02:29:15;;;;;;;6.65;3.78;;;;;;;5.61;85.39;99950.69;5133768;27;20031;-72
2021/03/13 02:31:48;;;;;;;7.68;4.13;;;;;;;5.51;85.64;99953.81;5133822;27;20031;-71
2021/03/13 02:34:18;;;;;;;6.70;3.80;;;;;;;5.40;86.04;99947.22;5133546;27;20023;-72
2021/03/13 02:36:45;;;;;;;6.38;3.50;;;;;;;5.45;86.09;99954.94;5133919;28;20469;-72
2021/03/13 02:39:13;;;;;;;6.97;3.63;;;;;;;5.48;85.85;99949.50;5115028;28;20034;-72
2021/03/13 02:41:44;;;;;;;6.97;4.43;;;;;;;5.42;86.35;99957.72;5133861;28;20027;-71
2021/03/13 02:44:14;;;;;;;8.70;4.10;;;;;;;5.45;85.89;99976.97;5133495;28;20026;-72
2021/03/13 02:46:47;;;;;;;6.13;3.63;;;;;;;5.39;86.15;99971.06;5133731;28;20019;-72
2021/03/13 02:49:14;;;;;;;7.25;3.72;;;;;;;5.38;86.21;99974.63;5115071;28;20032;-68
2021/03/13 02:51:42;;;;;;;7.32;3.97;;;;;;;5.40;86.14;99976.31;5133422;28;20027;-69
2021/03/13 02:54:10;;;;;;;7.13;4.20;;;;;;;5.40;86.11;99980.72;5133405;28;20027;-71
2021/03/13 02:56:39;;;;;;;8.00;4.10;;;;;;;5.32;86.32;99980.22;5133563;28;20042;-69
2021/03/13 02:59:06;;;;;;;7.50;4.10;;;;;;;5.27;86.55;99982.19;5133724;27;20030;-70
2021/03/13 03:01:34;;;;;;;6.97;4.00;;;;;;;5.38;86.43;99986.06;5098093;28;20088;-70
2021/03/13 03:04:01;;;;;;;8.93;4.35;;;;;;;5.29;86.44;99985.59;5133323;28;20050;-70
2021/03/13 03:06:26;;;;;;;8.60;4.60;;;;;;;5.20;87.01;99988.63;5133090;27;20034;-70
2021/03/13 03:08:53;;;;;;;11.32;4.60;;;;;;;5.24;87.17;99982.31;5136270;27;20027;-69
2021/03/13 03:11:24;;;;;;;7.13;4.07;;;;;;;5.24;86.93;99993.75;5137302;27;20023;-70
2021/03/13 03:13:51;;;;;;;7.90;4.40;;;;;;;5.05;87.23;99982.22;5137409;27;20030;-70
2021/03/13 03:16:18;;;;;;;6.32;4.13;;;;;;;5.05;87.62;100003.38;5137079;27;20465;-70
2021/03/13 03:18:45;;;;;;;6.43;4.13;;;;;;;4.98;87.79;99999.25;5137400;27;20052;-70
2021/03/13 03:21:11;;;;;;;8.00;4.60;;;;;;;4.92;88.00;100002.16;5136960;27;20474;-71
2021/03/13 03:23:38;;;;;;;9.82;4.60;;;;;;;4.90;88.29;99999.56;5137079;27;20438;-71
2021/03/13 03:26:04;;;;;;;7.05;4.70;;;;;;;4.87;88.54;99999.69;5137218;27;20023;-70
2021/03/13 03:28:30;;;;;;;8.80;4.65;;;;;;;4.89;88.54;99992.56;5118307;27;20482;-73
2021/03/13 03:30:55;;;;;;;7.35;4.53;;;;;;;4.87;88.50;99991.78;5137746;27;20513;-72
2021/03/13 03:33:22;;;;;;;6.82;4.53;;;;;;;4.90;88.34;99994.28;5136932;27;20023;-72
2021/03/13 03:35:48;;;;;;;10.13;4.70;;;;;;;4.95;88.00;100000.25;5119024;27;20031;-72
2021/03/13 03:38:14;;;;;;;6.80;4.40;;;;;;;4.93;88.19;100007.41;5118363;27;20496;-72
2021/03/13 03:40:41;;;;;;;6.05;4.07;;;;;;;4.93;87.81;100003.91;5136949;27;20034;-72
2021/03/13 03:43:13;;;;;;;9.18;4.95;;;;;;;4.89;87.91;99998.72;5136775;27;20038;-73
2021/03/13 03:45:41;;;;;;;9.13;4.60;;;;;;;4.81;88.22;99989.38;5136689;27;20018;-71
2021/03/13 03:48:13;;;;;;;7.10;4.60;;;;;;;4.82;88.06;100006.94;5136669;27;20027;-71
2021/03/13 03:50:42;;;;;;;9.05;4.32;;;;;;;4.80;88.13;100006.16;5136946;27;20023;-71
2021/03/13 03:53:13;;;;;;;7.72;4.65;;;;;;;4.75;88.46;100005.50;5118252;27;20019;-72
2021/03/13 03:55:44;;;;;;;7.72;4.35;;;;;;;4.68;88.47;99989.00;5136611;27;20114;-71
2021/03/13 03:58:11;;;;;;;7.70;4.85;;;;;;;4.71;88.22;99988.88;5136517;27;20023;-75
2021/03/13 04:00:37;;;;;;;9.35;4.80;;;;;;;4.71;88.58;100002.09;5118375;27;20589;-71
2021/03/13 04:03:09;;;;;;;10.25;4.82;;;;;;;4.71;88.50;99998.59;5136274;27;20056;-71
2021/03/13 04:05:36;;;;;;;7.35;4.82;;;;;;;4.67;88.83;99997.00;5117738;27;20064;-71
2021/03/13 04:08:04;;;;;;;7.88;4.88;;;;;;;4.74;88.38;100024.91;5136393;27;20084;-71
2021/03/13 04:10:30;;;;;;;7.55;4.68;;;;;;;4.66;88.72;100017.28;5117994;27;20457;-71
2021/03/13 04:12:58;;;;;;;8.45;5.13;;;;;;;4.72;88.66;100008.22;5136344;27;20110;-70
2021/03/13 04:15:24;;;;;;;8.23;4.68;;;;;;;4.73;88.37;100010.84;5135988;27;20026;-70
2021/03/13 04:17:50;;;;;;;7.85;5.07;;;;;;;4.73;88.20;100007.31;5136225;27;20031;-71
2021/03/13 04:20:16;;;;;;;9.68;5.25;;;;;;;4.65;88.54;100014.72;5117277;27;20110;-72
2021/03/13 04:22:42;;;;;;;8.05;4.53;;;;;;;4.66;88.92;100019.94;5117943;27;20223;-72
2021/03/13 04:25:08;;;;;;;8.75;4.90;;;;;;;4.71;88.61;100020.59;5136001;27;20473;-69
2021/03/13 04:27:44;;;;;;;9.93;5.07;;;;;;;4.67;88.71;100028.72;5117350;27;20443;-69
2021/03/13 04:30:13;;;;;;;9.35;5.25;;;;;;;4.74;88.69;100027.56;5135966;27;20110;-71
2021/03/13 04:32:39;;;;;;;9.27;5.38;;;;;;;4.69;88.68;100016.28;5135656;27;20073;-70
2021/03/13 04:35:05;;;;;;;8.95;5.45;;;;;;;4.72;88.35;100005.59;5135897;27;20404;-71
2021/03/13 04:37:32;;;;;;;9.50;6.18;;;;;;;4.72;88.39;100000.31;5135456;27;20027;-71
2021/03/13 04:39:57;;;;;;;9.48;6.10;;;;;;;4.83;88.23;99998.13;5117588;27;20469;-72
2021/03/13 04:42:23;;;;;;;13.18;5.57;;;;;;;4.87;87.83;99997.91;5135355;27;20031;-72
2021/03/13 04:44:49;;;;;;;9.23;5.65;;;;;;;4.72;87.99;99995.88;5135886;27;20055;-72
2021/03/13 04:47:15;;;;;;;10.70;5.82;;;;;;;4.63;88.32;100000.69;5117119;27;20065;-75
2021/03/13 04:49:40;;;;;;;10.20;6.30;;;;;;;4.55;88.54;100012.44;5117271;27;20055;-70
2021/03/13 04:52:06;;;;;;;10.25;6.65;;;;;;;4.51;88.92;100012.59;5135682;27;20058;-68
2021/03/13 04:54:33;;;;;;;11.73;6.78;;;;;;;4.39;88.58;100011.28;5135498;27;20485;-68
2021/03/13 04:56:58;;;;;;;10.70;7.05;;;;;;;4.40;88.46;100010.38;5135406;27;20027;-70
2021/03/13 04:59:24;;;;;;;10.27;6.40;;;;;;;4.26;88.85;99987.16;5135114;27;20031;-68
2021/03/13 05:01:49;;;;;;;13.20;7.82;;;;;;;4.23;89.53;100008.38;5135261;27;20469;-71
2021/03/13 05:04:15;;;;;;;14.20;7.05;;;;;;;4.10;90.20;100012.41;5135206;27;20110;-71
2021/03/13 05:06:40;;;;;;;11.95;7.40;;;;;;;4.09;90.54;100021.25;5134856;27;20465;-71
2021/03/13 05:09:06;;;;;;;13.20;7.38;;;;;;;4.03;90.85;100017.03;5135180;27;20399;-70
2021/03/13 05:11:33;;;;;;;11.55;7.18;;;;;;;4.05;91.34;100018.75;5134782;27;20465;-71
2021/03/13 05:14:00;;;;;;;12.32;7.90;;;;;;;4.02;91.59;100020.59;5135147;27;20031;-71
2021/03/13 05:16:26;;;;;;;14.48;7.97;;;;;;;4.10;91.69;100022.09;5134596;27;20486;-71
2021/03/13 05:18:51;;;;;;;12.73;7.10;;;;;;;4.15;91.23;100025.41;5134904;27;20027;-71
2021/03/13 05:21:17;;;;;;;13.00;7.22;;;;;;;4.17;91.39;100023.59;5116346;27;20524;-75
2021/03/13 05:23:43;;;;;;;12.18;7.40;;;;;;;4.20;91.05;100024.34;5099538;27;20031;-69
2021/03/13 05:26:09;;;;;;;13.90;7.22;;;;;;;4.27;90.88;100031.13;5134711;27;20023;-71
2021/03/13 05:28:34;;;;;;;12.40;7.57;;;;;;;4.29;90.81;100025.78;5134333;27;20038;-71
2021/03/13 05:31:00;;;;;;;12.68;7.55;;;;;;;4.38;90.73;100028.06;5115962;27;20401;-70
2021/03/13 05:33:26;;;;;;;13.23;7.78;;;;;;;4.41;90.09;100025.28;5134235;27;20477;-71
2021/03/13 05:35:51;;;;;;;13.68;7.68;;;;;;;4.43;90.10;100023.44;5134737;27;20462;-71
2021/03/13 05:38:17;;;;;;;13.23;7.78;;;;;;;4.46;89.95;100025.13;5116260;27;20472;-70
2021/03/13 05:40:42;;;;;;;12.38;7.82;;;;;;;4.51;89.62;100028.44;5134182;27;20031;-70
2021/03/13 05:43:11;;;;;;;13.88;7.88;;;;;;;4.38;89.81;99999.00;5134487;27;20477;-70
2021/03/13 05:45:39;;;;;;;12.68;7.78;;;;;;;4.49;89.81;100022.38;5134139;27;20383;-71
2021/03/13 05:48:07;;;;;;;12.27;7.72;;;;;;;4.42;90.04;100013.81;5134333;27;20027;-71
2021/03/13 05:50:33;;;;;;;12.93;7.88;;;;;;;4.55;89.82;100023.00;5133971;27;20359;-72
2021/03/13 05:53:02;;;;;;;11.85;7.25;;;;;;;4.60;89.71;100018.38;5134294;27;20037;-71
2021/03/13 05:55:29;;;;;;;12.05;7.57;;;;;;;4.60;89.84;100028.94;5133780;27;20035;-71
2021/03/13 05:57:55;;;;;;;11.70;7.38;;;;;;;4.68;89.62;100019.88;5134325;27;20381;-70
2021/03/13 06:00:21;;;;;;;11.85;7.53;;;;;;;4.64;89.89;100013.84;5134029;27;20025;-76
2021/03/13 06:02:48;;;;;;;11.48;7.18;;;;;;;4.65;90.03;100015.56;5133946;27;20054;-69
2021/03/13 06:05:15;;;;;;;10.13;6.97;;;;;;;4.79;89.64;100015.00;5134284;27;20442;-69
2021/03/13 06:07:43;;;;;;;12.70;7.55;;;;;;;4.61;89.55;99982.25;5133746;27;20034;-70
2021/03/13 06:10:11;;;;;;;11.68;7.53;;;;;;;4.87;89.02;100012.91;5134009;27;20027;-70
2021/03/13 06:12:37;;;;;;;11.40;7.35;;;;;;;5.02;88.14;100019.34;5133627;27;20027;-70
2021/03/13 06:15:03;;;;;;;11.23;7.45;;;;;;;5.04;88.45;100021.03;5115405;27;20020;-71
2021/03/13 06:17:28;;;;;;;13.93;7.90;;;;;;;5.12;88.13;100018.94;5133534;27;20478;-69
2021/03/13 06:19:58;;;;;;;12.65;7.28;;;;;;;5.17;88.26;100022.22;5133817;27;20154;-69
2021/03/13 06:22:41;;;;;;;11.18;7.15;;;;;;;5.27;87.59;100024.50;5133701;27;20033;-70
2021/03/13 06:25:12;;;;;;;12.80;7.90;;;;;;;5.29;87.44;100028.78;5133807;27;20504;-67
2021/03/13 06:27:38;;;;;;;10.48;7.30;;;;;;;5.36;87.03;100035.53;5133363;27;20124;-68
2021/03/13 06:30:08;;;;;;;13.40;6.90;;;;;;;5.42;86.70;100040.59;5133665;27;20476;-70
2021/03/13 06:32:35;;;;;;;10.68;7.13;;;;;;;5.50;86.38;100037.63;5097964;27;20492;-69
2021/03/13 06:35:26;;;;;;;12.43;7.15;;;;;;;5.59;85.98;100037.19;5133807;28;20095;-71
2021/03/13 06:37:54;;;;;;;11.07;6.70;;;;;;;5.67;85.48;100045.66;5133631;27;20019;-69
2021/03/13 06:40:36;;;;;;;13.93;7.43;;;;;;;5.74;85.27;100048.91;5133607;27;20462;-67
2021/03/13 06:43:19;;;;;;;12.77;6.40;;;;;;;5.83;84.71;100047.66;5116978;27;20036;-69
2021/03/13 06:46:10;;;;;;;11.20;6.57;;;;;;;5.97;84.30;100046.13;5119273;27;20030;-70
2021/03/13 06:48:40;;;;;;;10.77;6.72;;;;;;;6.08;83.87;100044.78;5137438;27;20481;-74
2021/03/13 06:51:26;;;;;;;16.40;7.53;;;;;;;6.20;83.22;100058.38;5137765;27;20033;-74
2021/03/13 06:54:01;;;;;;;10.20;6.50;;;;;;;6.28;82.57;100052.72;5137679;27;20084;-74
2021/03/13 06:56:29;;;;;;;12.93;7.15;;;;;;;6.38;81.83;100054.03;5137503;27;20098;-76
2021/03/13 06:58:55;;;;;;;13.13;6.30;;;;;;;6.40;81.78;100046.00;5119598;27;20024;-75
2021/03/13 07:01:31;;;;;;;12.75;6.28;;;;;;;6.52;81.10;100053.38;5138505;27;20029;-75
2021/03/13 07:03:58;;;;;;;11.68;6.57;;;;;;;6.59;80.84;100057.47;5119925;27;20042;-75
2021/03/13 07:06:24;;;;;;;10.48;6.53;;;;;;;6.62;80.26;100059.09;5137793;27;20370;-67
2021/03/13 07:08:51;;;;;;;12.38;6.93;;;;;;;6.75;80.19;100061.09;5137102;27;20023;-70
2021/03/13 07:11:23;;;;;;;11.75;6.88;;;;;;;6.66;80.70;100066.84;5137657;27;20110;-71
2021/03/13 07:13:54;;;;;;;9.38;5.80;;;;;;;6.59;80.64;100058.31;5137088;27;20381;-72
2021/03/13 07:16:29;;;;;;;9.13;5.97;;;;;;;6.77;80.16;100069.84;5137450;27;20027;-70
2021/03/13 07:19:05;;;;;;;9.88;5.45;;;;;;;6.75;80.76;100073.47;5137467;27;20102;-70
2021/03/13 07:21:33;;;;;;;9.32;5.60;;;;;;;6.82;80.54;100078.44;5136964;27;20031;-71
2021/03/13 07:24:08;;;;;;;11.07;6.30;;;;;;;6.83;80.36;100073.97;5137235;27;20050;-71
2021/03/13 07:26:44;;;;;;;10.20;5.15;;;;;;;6.94;79.96;100076.13;5136765;27;20469;-70
2021/03/13 07:29:12;;;;;;;9.40;5.35;;;;;;;6.92;79.61;100072.69;5137056;27;20080;-70
2021/03/13 07:31:40;;;;;;;9.48;4.72;;;;;;;6.97;79.45;100074.19;5136643;27;20015;-70
2021/03/13 07:34:12;;;;;;;8.45;4.72;;;;;;;7.06;79.23;100079.06;5137032;27;20019;-70
2021/03/13 07:36:42;;;;;;;6.97;3.85;;;;;;;7.20;78.55;100062.47;5136623;27;20102;-71
2021/03/13 07:39:23;;;;;;;6.47;4.10;;;;;;;7.28;78.00;100070.91;5136875;27;20106;-69
2021/03/13 07:42:24;;;;;;;7.72;4.18;;;;;;;7.30;77.74;100063.72;5136688;27;20143;-70
2021/03/13 07:44:49;;;;;;;7.38;4.28;;;;;;;7.37;77.14;100066.94;5135997;27;20058;-71
2021/03/13 07:47:17;;;;;;;9.43;4.07;;;;;;;7.45;76.88;100064.75;5101369;27;20507;-68
2021/03/13 07:49:43;;;;;;;9.25;4.78;;;;;;;7.45;76.90;100062.97;5136478;27;20020;-70
2021/03/13 07:52:11;;;;;;;6.38;4.05;;;;;;;7.53;75.99;100074.97;5136706;27;20072;-70
2021/03/13 07:54:42;;;;;;;8.68;4.10;;;;;;;7.61;75.69;100072.78;5136153;27;20480;-72
2021/03/13 07:57:10;;;;;;;7.50;3.75;;;;;;;7.70;75.32;100072.31;5136448;27;20381;-70
2021/03/13 07:59:49;;;;;;;8.32;4.07;;;;;;;7.73;75.06;100075.69;5136024;27;20077;-71
2021/03/13 08:02:30;;;;;;;8.73;4.00;;;;;;;7.90;74.21;100077.47;5101182;28;20401;-72
2021/03/13 08:04:56;;;;;;;6.80;3.67;;;;;;;7.92;74.29;100070.31;5119245;28;20027;-74
2021/03/13 08:07:23;;;;;;;8.30;3.88;;;;;;;7.97;73.71;100062.06;5115573;28;20062;-72
2021/03/13 08:09:49;;;;;;;6.43;3.78;;;;;;;7.97;73.60;100073.56;5115484;28;20055;-73
2021/03/13 08:12:41;;;;;;;6.45;3.67;;;;;;;8.00;73.77;100061.91;5115822;28;20536;-74
2021/03/13 08:15:33;;;;;;;6.50;3.33;;;;;;;8.13;73.84;100062.13;5115647;28;20106;-71
2021/03/13 08:17:59;;;;;;;6.88;3.70;;;;;;;8.27;73.01;100064.91;5115048;28;20024;-71
2021/03/13 08:20:32;;;;;;;5.15;3.40;;;;;;;8.35;72.77;100065.38;5115457;28;20035;-73
2021/03/13 08:23:13;;;;;;;6.50;3.10;;;;;;;8.47;72.01;100053.22;5115161;28;20027;-73
2021/03/13 08:26:04;;;;;;;5.93;3.03;;;;;;;8.54;71.12;100052.81;5115047;28;20028;-69
2021/03/13 08:28:48;;;;;;;7.68;3.42;;;;;;;8.59;71.27;100061.41;5093223;28;20092;-70
2021/03/13 08:31:26;;;;;;;;;;;;;;;8.67;70.79;100052.13;5115856;28;20465;-73
2021/03/13 08:33:56;;;;;;;4.80;2.72;;;;;;;8.80;69.80;100047.88;5115011;28;20406;-70
2021/03/13 08:36:24;;;;;;;5.65;3.03;;;;;;;8.86;69.61;100052.81;5115418;28;20102;-74
2021/03/13 08:39:00;;;;;;;6.65;3.33;;;;;;;8.97;68.90;100057.53;5096807;28;20027;-73
2021/03/13 08:41:43;;;;;;;4.85;3.00;;;;;;;9.10;68.66;100050.59;5115294;28;20028;-74
2021/03/13 08:44:12;;;;;;;;;;;;;;;9.17;67.86;100051.97;5115449;28;20487;-69
2021/03/13 08:46:44;;;;;;;5.47;2.80;;;;;;;9.32;66.48;100044.88;5097019;28;19911;-74
2021/03/13 08:49:30;;;;;;;5.37;2.73;;;;;;;9.38;66.43;100039.19;5115029;28;20095;-71
2021/03/13 08:52:04;;;;;;;6.20;2.90;;;;;;;9.48;65.80;100020.88;5114059;28;20028;-71
2021/03/13 08:54:46;;;;;;;6.22;2.65;;;;;;;9.57;65.22;100034.50;5114982;28;20047;-71
2021/03/13 08:57:12;;;;;;;5.28;2.65;;;;;;;9.69;64.91;100033.78;5115095;28;20020;-71
2021/03/13 08:59:40;;;;;;;9.48;3.40;;;;;;;9.78;63.74;100028.84;5114866;28;20019;-71
2021/03/13 09:02:17;;;;;;;4.63;2.67;;;;;;;9.83;63.48;100013.41;5114878;28;20039;-69
2021/03/13 09:04:52;;;;;;;5.93;3.00;;;;;;;9.93;63.78;100025.22;5113704;28;20023;-69
2021/03/13 09:07:19;;;;;;;4.78;2.63;;;;;;;9.93;63.00;100010.09;5114477;28;20102;-69
2021/03/13 09:09:46;;;;;;;4.70;2.53;;;;;;;9.92;63.65;100010.19;5114263;28;20382;-70
2021/03/13 09:12:20;;;;;;;5.05;2.55;;;;;;;10.04;63.59;100010.31;5096598;28;20110;-70
2021/03/13 09:14:54;;;;;;;5.13;2.65;;;;;;;10.19;63.38;100016.50;5114152;28;20072;-71
2021/03/13 09:17:22;;;;;;;6.82;2.90;;;;;;;10.13;63.07;100006.19;5114457;28;20042;-70
2021/03/13 09:19:49;;;;;;;5.18;2.47;;;;;;;10.06;62.90;100004.91;5114175;28;20027;-73
2021/03/13 09:22:23;;;;;;;4.88;2.60;;;;;;;10.12;62.36;100008.97;5096177;28;20034;-71
2021/03/13 09:25:00;;;;;;;4.18;2.35;;;;;;;10.13;62.04;99992.03;5114048;28;20045;-72
2021/03/13 09:27:37;;;;;;;6.05;2.30;;;;;;;10.13;61.63;100000.88;5096187;27;20114;-70
2021/03/13 09:30:06;;;;;;;4.80;2.20;;;;;;;10.21;62.39;100001.25;5122271;27;20466;-76
2021/03/13 09:32:31;;;;;;;5.70;2.22;;;;;;;10.22;61.85;100000.34;5114707;28;20500;-78
2021/03/13 09:34:57;;;;;;;4.00;2.00;;;;;;;10.19;60.96;99987.19;5114768;28;20031;-77
2021/03/13 09:37:30;;;;;;;6.57;2.00;;;;;;;10.23;60.65;99996.75;5096543;28;20028;-77
2021/03/13 09:40:01;;;;;;;6.10;2.45;;;;;;;10.28;60.69;99989.28;5097062;28;20015;-72
2021/03/13 09:42:28;;;;;;;3.63;2.10;;;;;;;10.35;60.20;99989.78;5114519;28;20035;-78
2021/03/13 09:45:07;;;;;;;4.35;2.13;;;;;;;10.46;59.76;99981.09;5114549;28;20023;-79
2021/03/13 09:47:35;;;;;;;8.20;2.25;;;;;;;10.54;59.58;99984.97;5114421;28;20026;-75
2021/03/13 09:50:05;;;;;;;4.07;2.20;;;;;;;10.69;58.91;99979.59;5114276;28;20028;-77
2021/03/13 09:52:33;;;;;;;5.22;2.00;;;;;;;10.77;58.58;99974.63;5114348;28;20034;-79
2021/03/13 09:55:18;;;;;;;3.28;2.05;;;;;;;10.81;57.35;99971.66;5114539;28;20027;-75
2021/03/13 09:57:46;;;;;;;4.72;2.15;;;;;;;10.86;57.87;99969.53;5118329;27;20512;-75
2021/03/13 10:00:40;;;;;;;2.83;1.73;;;;;;;10.99;57.35;99974.06;5134669;27;20076;-69
2021/03/13 10:03:14;;;;;;;4.53;2.40;;;;;;;11.05;57.18;99976.34;5134541;27;20067;-75
2021/03/13 10:05:40;;;;;;;5.57;1.88;;;;;;;11.06;56.14;99964.69;5136016;27;20023;-75
2021/03/13 10:08:14;;;;;;;6.20;2.28;;;;;;;11.07;56.48;99971.75;5118869;27;20039;-71
2021/03/13 10:10:48;;;;;;;4.47;2.17;;;;;;;11.03;56.71;99965.75;5116110;27;20034;-74
2021/03/13 10:13:15;;;;;;;7.03;2.20;;;;;;;11.14;56.49;99965.03;5134578;27;20034;-75
2021/03/13 10:15:42;;;;;;;5.32;2.30;;;;;;;11.18;56.37;99962.06;5134609;27;20023;-77
2021/03/13 10:18:21;;;;;;;7.40;2.10;;;;;;;11.18;56.27;99956.72;5134341;27;20083;-75
2021/03/13 10:20:50;;;;;;;4.10;2.05;;;;;;;11.32;55.97;99953.13;5136336;27;20034;-74
2021/03/13 10:23:24;;;;;;;8.18;2.10;;;;;;;11.27;55.62;99947.22;5117677;27;20498;-76
2021/03/13 10:25:56;;;;;;;4.15;2.08;;;;;;;11.26;55.55;99945.53;5134428;27;20023;-76
2021/03/13 10:28:27;;;;;;;5.18;2.08;;;;;;;11.45;54.66;99945.97;5123142;27;20030;-71
2021/03/13 10:31:07;;;;;;;4.57;2.28;;;;;;;11.49;54.78;99938.63;5113626;28;20058;-71
2021/03/13 10:33:33;;;;;;;5.22;2.22;;;;;;;11.50;54.87;99947.50;5113602;28;20023;-76
2021/03/13 10:35:59;;;;;;;7.25;2.13;;;;;;;11.64;54.85;99928.69;5113798;28;20081;-76
2021/03/13 10:38:25;;;;;;;5.75;2.00;;;;;;;11.72;53.24;99942.38;5113615;28;20023;-77
2021/03/13 10:40:53;;;;;;;4.25;2.13;;;;;;;11.76;51.99;99942.03;5095373;28;20109;-78
2021/03/13 10:43:30;;;;;;;4.00;2.10;;;;;;;11.68;51.32;99944.41;5113656;28;20111;-78
2021/03/13 10:45:55;;;;;;;4.65;2.05;;;;;;;11.68;52.42;99940.88;5113799;28;20055;-83
2021/03/13 10:48:21;;;;;;;4.65;2.08;;;;;;;11.70;51.82;99941.63;5113475;28;20051;-79
2021/03/13 10:50:46;;;;;;;5.57;2.33;;;;;;;11.72;51.42;99943.22;5113476;28;20028;-82
2021/03/13 10:53:32;;;;;;;5.25;2.30;;;;;;;11.74;51.39;99948.44;5095600;28;20110;-81
2021/03/13 10:56:11;;;;;;;5.00;2.30;;;;;;;11.78;51.93;99931.25;5095384;28;20039;-82
2021/03/13 10:58:45;;;;;;;4.32;2.10;;;;;;;11.80;51.14;99939.19;5108432;28;20027;-82
2021/03/13 11:01:11;;;;;;;4.32;2.10;;;;;;;11.83;51.77;99923.78;5134318;28;20023;-76
2021/03/13 11:03:36;;;;;;;3.75;1.92;;;;;;;11.83;52.65;99926.47;5133824;28;20047;-74
2021/03/13 11:06:03;;;;;;;6.45;2.05;;;;;;;11.74;53.25;99908.38;5133996;27;20026;-75
2021/03/13 11:08:28;;;;;;;5.57;2.47;;;;;;;11.89;52.90;99911.81;5098704;28;20027;-75
2021/03/13 11:10:56;;;;;;;5.22;2.58;;;;;;;12.02;52.23;99924.19;5115519;28;20499;-74
2021/03/13 11:13:22;;;;;;;5.00;2.58;;;;;;;12.12;52.32;99923.53;5133870;28;20500;-72
2021/03/13 11:15:48;;;;;;;3.28;1.92;;;;;;;12.19;51.37;99917.66;5133930;28;20035;-76
2021/03/13 11:18:14;;;;;;;5.40;2.25;;;;;;;12.32;51.03;99907.75;5115717;28;20420;-71
2021/03/13 11:20:41;;;;;;;5.47;2.47;;;;;;;12.25;51.78;99905.63;5133886;28;20038;-73
2021/03/13 11:23:07;;;;;;;5.93;2.10;;;;;;;12.34;51.32;99902.28;5115390;28;20054;-73
2021/03/13 11:25:33;;;;;;;7.35;2.17;;;;;;;12.41;50.61;99887.50;5133667;27;20028;-73
2021/03/13 11:27:58;;;;;;;4.85;2.33;;;;;;;12.48;50.73;99888.78;5133450;27;20698;-71
2021/03/13 11:30:24;;;;;;;4.45;2.10;;;;;;;12.53;50.96;99897.31;5143212;27;20033;-73
2021/03/13 11:32:50;;;;;;;4.43;2.30;;;;;;;12.66;50.44;99886.56;5138772;27;20053;-72
2021/03/13 11:35:19;;;;;;;5.72;2.30;;;;;;;12.68;49.97;99892.66;5137663;27;20034;-73
2021/03/13 11:37:46;;;;;;;7.03;2.40;;;;;;;12.76;48.99;99873.34;5137280;27;20034;-72
2021/03/13 11:40:12;;;;;;;9.43;2.17;;;;;;;12.76;48.19;99859.97;5137371;27;20164;-74
2021/03/13 11:42:38;;;;;;;6.15;2.05;;;;;;;12.70;48.59;99861.28;5118891;27;20051;-73
2021/03/13 11:45:08;;;;;;;4.55;2.20;;;;;;;12.69;48.12;99853.38;5137304;27;20115;-76